sensor_id;sensor_type;location;lat;lon;timestamp;P1;durP1;ratioP1;P2;durP2;ratioP2
26435;SDS011;15351;52.408;16.826;2023-04-25T00:01:34;2.10;;;1.70;;
26435;SDS011;15351;52.408;16.826;2023-04-25T00:04:05;1.70;;;1.60;;
26435;SDS011;15351;52.408;16.826;2023-04-25T00:06:48;3.30;;;1.60;;
26435;SDS011;15351;52.408;16.826;2023-04-25T00:09:17;2.40;;;1.80;;
26435;SDS011;15351;52.408;16.826;2023-04-25T00:11:53;3.40;;;1.80;;
26435;SDS011;15351;52.408;16.826;2023-04-25T00:14:32;1.90;;;1.70;;
26435;SDS011;15351;52.408;16.826;2023-04-25T00:23:06;1.60;;;1.50;;
26435;SDS011;15351;52.408;16.826;2023-04-25T00:25:39;2.40;;;1.40;;
26435;SDS011;15351;52.408;16.826;2023-04-25T00:28:14;2.10;;;1.70;;
26435;SDS011;15351;52.408;16.826;2023-04-25T00:33:57;2.20;;;1.50;;
26435;SDS011;15351;52.408;16.826;2023-04-25T00:36:25;1.60;;;1.30;;
26435;SDS011;15351;52.408;16.826;2023-04-25T00:39:11;1.40;;;1.30;;
26435;SDS011;15351;52.408;16.826;2023-04-25T00:41:43;3.00;;;1.30;;
26435;SDS011;15351;52.408;16.826;2023-04-25T00:44:22;2.50;;;1.50;;
26435;SDS011;15351;52.408;16.826;2023-04-25T00:47:13;2.20;;;1.50;;
26435;SDS011;15351;52.408;16.826;2023-04-25T00:50:07;3.10;;;1.60;;
26435;SDS011;15351;52.408;16.826;2023-04-25T00:52:36;3.90;;;1.40;;
26435;SDS011;15351;52.408;16.826;2023-04-25T00:55:39;2.40;;;1.50;;
26435;SDS011;15351;52.408;16.826;2023-04-25T00:58:17;1.80;;;1.50;;
26435;SDS011;15351;52.408;16.826;2023-04-25T01:00:57;2.50;;;1.60;;
26435;SDS011;15351;52.408;16.826;2023-04-25T01:03:23;2.10;;;1.50;;
26435;SDS011;15351;52.408;16.826;2023-04-25T01:05:54;1.60;;;1.50;;
26435;SDS011;15351;52.408;16.826;2023-04-25T01:08:21;2.30;;;1.60;;
26435;SDS011;15351;52.408;16.826;2023-04-25T01:10:53;2.80;;;1.60;;
26435;SDS011;15351;52.408;16.826;2023-04-25T01:13:26;1.70;;;1.40;;
26435;SDS011;15351;52.408;16.826;2023-04-25T01:15:53;2.20;;;1.60;;
26435;SDS011;15351;52.408;16.826;2023-04-25T01:18:19;1.60;;;1.50;;
26435;SDS011;15351;52.408;16.826;2023-04-25T01:20:47;2.70;;;1.70;;
26435;SDS011;15351;52.408;16.826;2023-04-25T01:23:17;3.00;;;1.60;;
26435;SDS011;15351;52.408;16.826;2023-04-25T01:25:55;6.10;;;1.80;;
26435;SDS011;15351;52.408;16.826;2023-04-25T01:28:51;4.00;;;1.90;;
26435;SDS011;15351;52.408;16.826;2023-04-25T01:31:48;2.50;;;1.90;;
26435;SDS011;15351;52.408;16.826;2023-04-25T01:34:41;3.10;;;2.30;;
26435;SDS011;15351;52.408;16.826;2023-04-25T01:37:12;2.80;;;2.20;;
26435;SDS011;15351;52.408;16.826;2023-04-25T01:42:42;4.60;;;3.30;;
26435;SDS011;15351;52.408;16.826;2023-04-25T01:45:27;5.00;;;3.40;;
26435;SDS011;15351;52.408;16.826;2023-04-25T01:47:56;4.50;;;3.50;;
26435;SDS011;15351;52.408;16.826;2023-04-25T01:50:25;5.00;;;3.50;;
26435;SDS011;15351;52.408;16.826;2023-04-25T01:52:52;6.10;;;3.30;;
26435;SDS011;15351;52.408;16.826;2023-04-25T01:55:22;3.60;;;2.90;;
26435;SDS011;15351;52.408;16.826;2023-04-25T01:57:56;3.50;;;2.60;;
26435;SDS011;15351;52.408;16.826;2023-04-25T02:00:36;3.90;;;2.60;;
26435;SDS011;15351;52.408;16.826;2023-04-25T02:03:26;4.70;;;2.50;;
26435;SDS011;15351;52.408;16.826;2023-04-25T02:06:02;4.20;;;2.40;;
26435;SDS011;15351;52.408;16.826;2023-04-25T02:08:30;2.40;;;1.90;;
26435;SDS011;15351;52.408;16.826;2023-04-25T02:11:03;2.60;;;2.30;;
26435;SDS011;15351;52.408;16.826;2023-04-25T02:13:36;2.60;;;2.30;;
26435;SDS011;15351;52.408;16.826;2023-04-25T02:16:14;3.40;;;2.20;;
26435;SDS011;15351;52.408;16.826;2023-04-25T02:18:40;3.30;;;2.20;;
26435;SDS011;15351;52.408;16.826;2023-04-25T02:21:10;3.10;;;2.00;;
26435;SDS011;15351;52.408;16.826;2023-04-25T02:23:37;3.20;;;2.20;;
26435;SDS011;15351;52.408;16.826;2023-04-25T02:26:24;3.30;;;2.20;;
26435;SDS011;15351;52.408;16.826;2023-04-25T02:29:24;4.70;;;2.30;;
26435;SDS011;15351;52.408;16.826;2023-04-25T02:31:51;3.60;;;2.30;;
26435;SDS011;15351;52.408;16.826;2023-04-25T02:34:56;2.90;;;2.20;;
26435;SDS011;15351;52.408;16.826;2023-04-25T02:37:33;3.80;;;2.50;;
26435;SDS011;15351;52.408;16.826;2023-04-25T02:40:20;3.50;;;2.60;;
26435;SDS011;15351;52.408;16.826;2023-04-25T02:42:47;4.20;;;2.60;;
26435;SDS011;15351;52.408;16.826;2023-04-25T02:45:13;4.90;;;2.50;;
26435;SDS011;15351;52.408;16.826;2023-04-25T02:47:41;4.70;;;2.40;;
26435;SDS011;15351;52.408;16.826;2023-04-25T02:50:08;3.60;;;2.50;;
26435;SDS011;15351;52.408;16.826;2023-04-25T02:52:38;4.50;;;2.70;;
26435;SDS011;15351;52.408;16.826;2023-04-25T02:55:15;4.40;;;2.80;;
26435;SDS011;15351;52.408;16.826;2023-04-25T02:57:43;4.10;;;2.60;;
26435;SDS011;15351;52.408;16.826;2023-04-25T03:00:46;3.00;;;2.40;;
26435;SDS011;15351;52.408;16.826;2023-04-25T03:03:13;5.10;;;2.80;;
26435;SDS011;15351;52.408;16.826;2023-04-25T03:05:43;3.80;;;2.90;;
26435;SDS011;15351;52.408;16.826;2023-04-25T03:08:13;6.80;;;3.30;;
26435;SDS011;15351;52.408;16.826;2023-04-25T03:10:39;6.40;;;3.00;;
26435;SDS011;15351;52.408;16.826;2023-04-25T03:13:08;5.40;;;3.10;;
26435;SDS011;15351;52.408;16.826;2023-04-25T03:15:35;4.60;;;3.00;;
26435;SDS011;15351;52.408;16.826;2023-04-25T03:18:02;4.40;;;3.10;;
26435;SDS011;15351;52.408;16.826;2023-04-25T03:20:29;5.20;;;3.50;;
26435;SDS011;15351;52.408;16.826;2023-04-25T03:22:59;6.30;;;3.30;;
26435;SDS011;15351;52.408;16.826;2023-04-25T03:25:26;3.70;;;3.10;;
26435;SDS011;15351;52.408;16.826;2023-04-25T03:27:59;4.10;;;3.20;;
26435;SDS011;15351;52.408;16.826;2023-04-25T03:30:38;5.20;;;3.40;;
26435;SDS011;15351;52.408;16.826;2023-04-25T03:33:05;5.70;;;3.80;;
26435;SDS011;15351;52.408;16.826;2023-04-25T03:35:32;5.70;;;3.80;;
26435;SDS011;15351;52.408;16.826;2023-04-25T03:37:58;5.50;;;3.30;;
26435;SDS011;15351;52.408;16.826;2023-04-25T03:40:29;5.40;;;3.80;;
26435;SDS011;15351;52.408;16.826;2023-04-25T03:43:14;6.00;;;4.70;;
26435;SDS011;15351;52.408;16.826;2023-04-25T03:45:49;8.50;;;4.90;;
26435;SDS011;15351;52.408;16.826;2023-04-25T03:48:26;8.10;;;5.00;;
26435;SDS011;15351;52.408;16.826;2023-04-25T03:50:58;8.00;;;4.80;;
26435;SDS011;15351;52.408;16.826;2023-04-25T03:53:25;7.00;;;4.90;;
26435;SDS011;15351;52.408;16.826;2023-04-25T03:56:19;9.60;;;6.10;;
26435;SDS011;15351;52.408;16.826;2023-04-25T03:58:47;10.50;;;6.90;;
26435;SDS011;15351;52.408;16.826;2023-04-25T04:01:16;10.70;;;6.50;;
26435;SDS011;15351;52.408;16.826;2023-04-25T04:03:43;8.30;;;5.60;;
26435;SDS011;15351;52.408;16.826;2023-04-25T04:06:09;6.30;;;4.60;;
26435;SDS011;15351;52.408;16.826;2023-04-25T04:08:42;6.90;;;4.60;;
26435;SDS011;15351;52.408;16.826;2023-04-25T04:11:13;8.40;;;4.60;;
26435;SDS011;15351;52.408;16.826;2023-04-25T04:13:40;6.60;;;4.10;;
26435;SDS011;15351;52.408;16.826;2023-04-25T04:16:07;5.40;;;3.70;;
26435;SDS011;15351;52.408;16.826;2023-04-25T04:18:47;5.10;;;3.90;;
26435;SDS011;15351;52.408;16.826;2023-04-25T04:21:20;6.40;;;4.40;;
26435;SDS011;15351;52.408;16.826;2023-04-25T04:23:46;7.00;;;4.20;;
26435;SDS011;15351;52.408;16.826;2023-04-25T04:26:14;5.70;;;4.30;;
26435;SDS011;15351;52.408;16.826;2023-04-25T04:29:06;5.90;;;3.90;;
26435;SDS011;15351;52.408;16.826;2023-04-25T04:31:59;5.30;;;4.00;;
26435;SDS011;15351;52.408;16.826;2023-04-25T04:34:27;6.00;;;4.50;;
26435;SDS011;15351;52.408;16.826;2023-04-25T04:37:05;6.00;;;4.20;;
26435;SDS011;15351;52.408;16.826;2023-04-25T04:39:34;6.30;;;4.20;;
26435;SDS011;15351;52.408;16.826;2023-04-25T04:42:24;5.60;;;4.20;;
26435;SDS011;15351;52.408;16.826;2023-04-25T04:45:11;5.60;;;4.30;;
26435;SDS011;15351;52.408;16.826;2023-04-25T04:47:57;7.00;;;4.40;;
26435;SDS011;15351;52.408;16.826;2023-04-25T04:50:44;6.70;;;4.40;;
26435;SDS011;15351;52.408;16.826;2023-04-25T04:53:37;5.90;;;4.30;;
26435;SDS011;15351;52.408;16.826;2023-04-25T04:56:15;5.00;;;4.50;;
26435;SDS011;15351;52.408;16.826;2023-04-25T04:58:51;7.20;;;4.70;;
26435;SDS011;15351;52.408;16.826;2023-04-25T05:01:21;6.20;;;4.20;;
26435;SDS011;15351;52.408;16.826;2023-04-25T05:04:25;6.00;;;4.20;;
26435;SDS011;15351;52.408;16.826;2023-04-25T05:07:23;5.50;;;4.20;;
26435;SDS011;15351;52.408;16.826;2023-04-25T05:09:50;5.30;;;4.30;;
26435;SDS011;15351;52.408;16.826;2023-04-25T05:13:03;6.20;;;4.50;;
26435;SDS011;15351;52.408;16.826;2023-04-25T05:16:12;8.10;;;4.30;;
26435;SDS011;15351;52.408;16.826;2023-04-25T05:19:08;5.40;;;4.50;;
26435;SDS011;15351;52.408;16.826;2023-04-25T05:26:14;6.70;;;4.60;;
26435;SDS011;15351;52.408;16.826;2023-04-25T05:29:05;5.10;;;3.80;;
26435;SDS011;15351;52.408;16.826;2023-04-25T05:32:02;5.50;;;4.00;;
26435;SDS011;15351;52.408;16.826;2023-04-25T05:38:35;6.30;;;4.30;;
26435;SDS011;15351;52.408;16.826;2023-04-25T05:41:44;7.60;;;4.30;;
26435;SDS011;15351;52.408;16.826;2023-04-25T05:44:44;4.90;;;3.50;;
26435;SDS011;15351;52.408;16.826;2023-04-25T05:48:16;5.20;;;3.90;;
26435;SDS011;15351;52.408;16.826;2023-04-25T05:51:18;6.10;;;4.20;;
26435;SDS011;15351;52.408;16.826;2023-04-25T05:54:15;6.70;;;4.30;;
26435;SDS011;15351;52.408;16.826;2023-04-25T05:57:18;6.00;;;3.60;;
26435;SDS011;15351;52.408;16.826;2023-04-25T06:00:00;5.60;;;3.70;;
26435;SDS011;15351;52.408;16.826;2023-04-25T06:02:48;5.60;;;4.10;;
26435;SDS011;15351;52.408;16.826;2023-04-25T06:05:24;7.40;;;4.30;;
26435;SDS011;15351;52.408;16.826;2023-04-25T06:07:53;6.60;;;4.10;;
26435;SDS011;15351;52.408;16.826;2023-04-25T06:10:50;6.00;;;3.90;;
26435;SDS011;15351;52.408;16.826;2023-04-25T06:13:20;7.20;;;4.00;;
26435;SDS011;15351;52.408;16.826;2023-04-25T06:15:47;7.10;;;4.30;;
26435;SDS011;15351;52.408;16.826;2023-04-25T06:18:16;6.50;;;4.40;;
26435;SDS011;15351;52.408;16.826;2023-04-25T06:20:47;7.40;;;4.50;;
26435;SDS011;15351;52.408;16.826;2023-04-25T06:23:17;6.80;;;3.90;;
26435;SDS011;15351;52.408;16.826;2023-04-25T06:25:59;5.90;;;3.60;;
26435;SDS011;15351;52.408;16.826;2023-04-25T06:28:30;7.10;;;4.40;;
26435;SDS011;15351;52.408;16.826;2023-04-25T06:31:20;5.90;;;4.10;;
26435;SDS011;15351;52.408;16.826;2023-04-25T06:34:13;7.90;;;5.10;;
26435;SDS011;15351;52.408;16.826;2023-04-25T06:37:05;8.00;;;4.10;;
26435;SDS011;15351;52.408;16.826;2023-04-25T06:39:33;6.70;;;4.10;;
26435;SDS011;15351;52.408;16.826;2023-04-25T06:42:04;7.30;;;4.20;;
26435;SDS011;15351;52.408;16.826;2023-04-25T06:44:39;6.50;;;4.40;;
26435;SDS011;15351;52.408;16.826;2023-04-25T06:47:12;7.10;;;4.40;;
26435;SDS011;15351;52.408;16.826;2023-04-25T06:49:45;9.30;;;4.50;;
26435;SDS011;15351;52.408;16.826;2023-04-25T06:52:29;5.70;;;3.90;;
26435;SDS011;15351;52.408;16.826;2023-04-25T06:58:15;6.90;;;4.40;;
26435;SDS011;15351;52.408;16.826;2023-04-25T07:01:19;6.80;;;4.40;;
26435;SDS011;15351;52.408;16.826;2023-04-25T07:04:15;9.70;;;4.50;;
26435;SDS011;15351;52.408;16.826;2023-04-25T07:06:55;9.50;;;4.60;;
26435;SDS011;15351;52.408;16.826;2023-04-25T07:09:34;6.40;;;4.30;;
26435;SDS011;15351;52.408;16.826;2023-04-25T07:12:04;7.20;;;4.20;;
26435;SDS011;15351;52.408;16.826;2023-04-25T07:14:34;6.60;;;4.50;;
26435;SDS011;15351;52.408;16.826;2023-04-25T07:17:04;7.70;;;4.80;;
26435;SDS011;15351;52.408;16.826;2023-04-25T07:19:48;9.30;;;4.90;;
26435;SDS011;15351;52.408;16.826;2023-04-25T07:22:20;9.20;;;4.60;;
26435;SDS011;15351;52.408;16.826;2023-04-25T07:24:54;7.00;;;4.30;;
26435;SDS011;15351;52.408;16.826;2023-04-25T07:27:22;7.90;;;4.50;;
26435;SDS011;15351;52.408;16.826;2023-04-25T07:29:58;8.20;;;4.70;;
26435;SDS011;15351;52.408;16.826;2023-04-25T07:32:25;7.60;;;4.80;;
26435;SDS011;15351;52.408;16.826;2023-04-25T07:35:04;7.90;;;4.50;;
26435;SDS011;15351;52.408;16.826;2023-04-25T07:37:40;9.20;;;4.50;;
26435;SDS011;15351;52.408;16.826;2023-04-25T07:40:23;6.50;;;4.40;;
26435;SDS011;15351;52.408;16.826;2023-04-25T07:43:05;7.80;;;4.10;;
26435;SDS011;15351;52.408;16.826;2023-04-25T07:45:55;7.70;;;4.10;;
26435;SDS011;15351;52.408;16.826;2023-04-25T07:48:30;7.10;;;4.10;;
26435;SDS011;15351;52.408;16.826;2023-04-25T07:51:00;6.30;;;4.30;;
26435;SDS011;15351;52.408;16.826;2023-04-25T07:53:32;7.60;;;4.60;;
26435;SDS011;15351;52.408;16.826;2023-04-25T07:56:04;6.20;;;4.50;;
26435;SDS011;15351;52.408;16.826;2023-04-25T08:01:35;6.80;;;4.60;;
26435;SDS011;15351;52.408;16.826;2023-04-25T08:04:17;7.50;;;4.50;;
26435;SDS011;15351;52.408;16.826;2023-04-25T08:07:03;9.40;;;4.80;;
26435;SDS011;15351;52.408;16.826;2023-04-25T08:09:45;6.10;;;4.20;;
26435;SDS011;15351;52.408;16.826;2023-04-25T08:12:25;7.40;;;4.50;;
26435;SDS011;15351;52.408;16.826;2023-04-25T08:14:55;7.00;;;4.60;;
26435;SDS011;15351;52.408;16.826;2023-04-25T08:17:42;8.70;;;5.00;;
26435;SDS011;15351;52.408;16.826;2023-04-25T08:20:25;6.80;;;4.60;;
26435;SDS011;15351;52.408;16.826;2023-04-25T08:23:56;6.70;;;4.80;;
26435;SDS011;15351;52.408;16.826;2023-04-25T08:30:19;7.90;;;4.90;;
26435;SDS011;15351;52.408;16.826;2023-04-25T08:32:59;7.70;;;5.30;;
26435;SDS011;15351;52.408;16.826;2023-04-25T08:36:04;6.70;;;4.80;;
26435;SDS011;15351;52.408;16.826;2023-04-25T08:38:35;6.80;;;4.70;;
26435;SDS011;15351;52.408;16.826;2023-04-25T08:41:14;6.60;;;4.50;;
26435;SDS011;15351;52.408;16.826;2023-04-25T08:44:03;7.20;;;4.80;;
26435;SDS011;15351;52.408;16.826;2023-04-25T08:46:35;8.20;;;4.80;;
26435;SDS011;15351;52.408;16.826;2023-04-25T08:49:28;7.90;;;4.80;;
26435;SDS011;15351;52.408;16.826;2023-04-25T08:52:05;9.10;;;5.30;;
26435;SDS011;15351;52.408;16.826;2023-04-25T08:55:15;6.60;;;5.00;;
26435;SDS011;15351;52.408;16.826;2023-04-25T08:57:59;9.40;;;5.10;;
26435;SDS011;15351;52.408;16.826;2023-04-25T09:00:33;8.50;;;5.60;;
26435;SDS011;15351;52.408;16.826;2023-04-25T09:06:04;7.00;;;5.10;;
26435;SDS011;15351;52.408;16.826;2023-04-25T09:09:10;7.50;;;4.80;;
26435;SDS011;15351;52.408;16.826;2023-04-25T09:11:50;6.90;;;5.10;;
26435;SDS011;15351;52.408;16.826;2023-04-25T09:14:21;8.50;;;5.20;;
26435;SDS011;15351;52.408;16.826;2023-04-25T09:24:33;7.00;;;4.50;;
26435;SDS011;15351;52.408;16.826;2023-04-25T09:27:28;5.50;;;4.20;;
26435;SDS011;15351;52.408;16.826;2023-04-25T09:30:30;5.80;;;3.90;;
26435;SDS011;15351;52.408;16.826;2023-04-25T09:36:40;5.80;;;3.90;;
26435;SDS011;15351;52.408;16.826;2023-04-25T09:39:33;6.10;;;4.10;;
26435;SDS011;15351;52.408;16.826;2023-04-25T09:42:05;5.90;;;3.70;;
26435;SDS011;15351;52.408;16.826;2023-04-25T09:44:56;5.60;;;4.00;;
26435;SDS011;15351;52.408;16.826;2023-04-25T09:47:25;7.20;;;4.70;;
26435;SDS011;15351;52.408;16.826;2023-04-25T09:50:15;5.90;;;3.90;;
26435;SDS011;15351;52.408;16.826;2023-04-25T09:53:19;7.10;;;4.30;;
26435;SDS011;15351;52.408;16.826;2023-04-25T09:56:14;6.10;;;4.00;;
26435;SDS011;15351;52.408;16.826;2023-04-25T09:59:07;6.20;;;4.20;;
26435;SDS011;15351;52.408;16.826;2023-04-25T10:01:37;5.50;;;4.00;;
26435;SDS011;15351;52.408;16.826;2023-04-25T10:04:32;7.00;;;4.70;;
26435;SDS011;15351;52.408;16.826;2023-04-25T10:07:22;7.30;;;4.60;;
26435;SDS011;15351;52.408;16.826;2023-04-25T10:09:57;7.50;;;4.50;;
26435;SDS011;15351;52.408;16.826;2023-04-25T10:16:11;6.20;;;3.70;;
26435;SDS011;15351;52.408;16.826;2023-04-25T10:18:39;7.60;;;4.40;;
26435;SDS011;15351;52.408;16.826;2023-04-25T10:21:12;8.40;;;4.40;;
26435;SDS011;15351;52.408;16.826;2023-04-25T10:24:04;6.40;;;4.60;;
26435;SDS011;15351;52.408;16.826;2023-04-25T10:26:30;5.20;;;3.40;;
26435;SDS011;15351;52.408;16.826;2023-04-25T10:29:09;7.70;;;3.30;;
26435;SDS011;15351;52.408;16.826;2023-04-25T10:32:16;6.50;;;3.80;;
26435;SDS011;15351;52.408;16.826;2023-04-25T10:35:18;5.90;;;4.00;;
26435;SDS011;15351;52.408;16.826;2023-04-25T10:44:05;5.90;;;3.70;;
26435;SDS011;15351;52.408;16.826;2023-04-25T10:46:43;6.00;;;3.70;;
26435;SDS011;15351;52.408;16.826;2023-04-25T10:49:28;4.90;;;3.40;;
26435;SDS011;15351;52.408;16.826;2023-04-25T10:52:15;4.70;;;3.50;;
26435;SDS011;15351;52.408;16.826;2023-04-25T10:55:48;6.70;;;3.70;;
26435;SDS011;15351;52.408;16.826;2023-04-25T10:58:33;5.50;;;3.30;;
26435;SDS011;15351;52.408;16.826;2023-04-25T11:01:24;4.40;;;3.50;;
26435;SDS011;15351;52.408;16.826;2023-04-25T11:04:01;6.80;;;3.70;;
26435;SDS011;15351;52.408;16.826;2023-04-25T11:09:56;5.00;;;3.40;;
26435;SDS011;15351;52.408;16.826;2023-04-25T11:15:18;4.50;;;3.50;;
26435;SDS011;15351;52.408;16.826;2023-04-25T11:17:50;4.90;;;3.60;;
26435;SDS011;15351;52.408;16.826;2023-04-25T11:20:36;7.70;;;3.80;;
26435;SDS011;15351;52.408;16.826;2023-04-25T11:23:06;5.70;;;3.80;;
26435;SDS011;15351;52.408;16.826;2023-04-25T11:28:50;5.70;;;3.40;;
26435;SDS011;15351;52.408;16.826;2023-04-25T11:31:19;4.70;;;3.10;;
26435;SDS011;15351;52.408;16.826;2023-04-25T11:33:50;3.70;;;2.90;;
26435;SDS011;15351;52.408;16.826;2023-04-25T11:37:09;5.70;;;3.50;;
26435;SDS011;15351;52.408;16.826;2023-04-25T11:39:37;5.80;;;3.50;;
26435;SDS011;15351;52.408;16.826;2023-04-25T11:42:04;6.00;;;3.30;;
26435;SDS011;15351;52.408;16.826;2023-04-25T11:44:35;6.00;;;3.20;;
26435;SDS011;15351;52.408;16.826;2023-04-25T11:47:10;5.80;;;3.70;;
26435;SDS011;15351;52.408;16.826;2023-04-25T11:49:36;4.90;;;3.40;;
26435;SDS011;15351;52.408;16.826;2023-04-25T11:52:05;5.30;;;3.30;;
26435;SDS011;15351;52.408;16.826;2023-04-25T11:54:55;5.90;;;3.50;;
26435;SDS011;15351;52.408;16.826;2023-04-25T11:58:06;6.50;;;3.50;;
26435;SDS011;15351;52.408;16.826;2023-04-25T12:00:45;5.30;;;3.50;;
26435;SDS011;15351;52.408;16.826;2023-04-25T12:03:15;5.90;;;3.30;;
26435;SDS011;15351;52.408;16.826;2023-04-25T12:06:03;5.40;;;3.10;;
26435;SDS011;15351;52.408;16.826;2023-04-25T12:08:58;5.10;;;3.50;;
26435;SDS011;15351;52.408;16.826;2023-04-25T12:15:44;6.80;;;4.00;;
26435;SDS011;15351;52.408;16.826;2023-04-25T12:18:10;6.00;;;3.60;;
26435;SDS011;15351;52.408;16.826;2023-04-25T12:20:49;6.60;;;3.70;;
26435;SDS011;15351;52.408;16.826;2023-04-25T12:26:26;5.80;;;3.40;;
26435;SDS011;15351;52.408;16.826;2023-04-25T12:33:16;6.40;;;3.80;;
26435;SDS011;15351;52.408;16.826;2023-04-25T12:35:48;4.80;;;3.30;;
26435;SDS011;15351;52.408;16.826;2023-04-25T12:38:30;3.80;;;3.20;;
26435;SDS011;15351;52.408;16.826;2023-04-25T12:41:33;5.80;;;3.60;;
26435;SDS011;15351;52.408;16.826;2023-04-25T12:47:55;4.90;;;3.20;;
26435;SDS011;15351;52.408;16.826;2023-04-25T12:51:14;5.70;;;3.20;;
26435;SDS011;15351;52.408;16.826;2023-04-25T12:53:50;4.30;;;2.90;;
26435;SDS011;15351;52.408;16.826;2023-04-25T12:56:40;4.60;;;2.90;;
26435;SDS011;15351;52.408;16.826;2023-04-25T12:59:24;4.10;;;2.90;;
26435;SDS011;15351;52.408;16.826;2023-04-25T13:03:00;5.30;;;3.70;;
26435;SDS011;15351;52.408;16.826;2023-04-25T13:05:34;4.70;;;3.40;;
26435;SDS011;15351;52.408;16.826;2023-04-25T13:08:14;4.10;;;3.20;;
26435;SDS011;15351;52.408;16.826;2023-04-25T13:10:41;2.80;;;1.90;;
26435;SDS011;15351;52.408;16.826;2023-04-25T13:13:40;5.10;;;2.00;;
26435;SDS011;15351;52.408;16.826;2023-04-25T13:16:09;2.90;;;1.70;;
26435;SDS011;15351;52.408;16.826;2023-04-25T13:18:59;3.80;;;1.90;;
26435;SDS011;15351;52.408;16.826;2023-04-25T13:21:27;3.60;;;2.10;;
26435;SDS011;15351;52.408;16.826;2023-04-25T13:24:19;5.90;;;2.10;;
26435;SDS011;15351;52.408;16.826;2023-04-25T13:26:45;2.50;;;1.80;;
26435;SDS011;15351;52.408;16.826;2023-04-25T13:29:24;2.40;;;1.70;;
26435;SDS011;15351;52.408;16.826;2023-04-25T13:32:08;3.00;;;1.80;;
26435;SDS011;15351;52.408;16.826;2023-04-25T13:35:05;3.80;;;2.30;;
26435;SDS011;15351;52.408;16.826;2023-04-25T13:38:04;2.70;;;2.20;;
26435;SDS011;15351;52.408;16.826;2023-04-25T13:40:59;3.40;;;2.50;;
26435;SDS011;15351;52.408;16.826;2023-04-25T13:43:58;3.90;;;2.80;;
26435;SDS011;15351;52.408;16.826;2023-04-25T13:47:01;4.30;;;3.10;;
26435;SDS011;15351;52.408;16.826;2023-04-25T13:49:28;3.80;;;2.70;;
26435;SDS011;15351;52.408;16.826;2023-04-25T13:51:54;3.50;;;2.40;;
26435;SDS011;15351;52.408;16.826;2023-04-25T13:54:25;3.10;;;2.40;;
26435;SDS011;15351;52.408;16.826;2023-04-25T13:56:54;4.90;;;2.90;;
26435;SDS011;15351;52.408;16.826;2023-04-25T13:59:27;4.20;;;3.20;;
26435;SDS011;15351;52.408;16.826;2023-04-25T14:01:53;5.50;;;3.70;;
26435;SDS011;15351;52.408;16.826;2023-04-25T14:04:19;5.20;;;3.20;;
26435;SDS011;15351;52.408;16.826;2023-04-25T14:06:46;5.80;;;3.70;;
26435;SDS011;15351;52.408;16.826;2023-04-25T14:09:32;4.70;;;3.60;;
26435;SDS011;15351;52.408;16.826;2023-04-25T14:11:59;4.60;;;3.80;;
26435;SDS011;15351;52.408;16.826;2023-04-25T14:14:27;6.00;;;3.80;;
26435;SDS011;15351;52.408;16.826;2023-04-25T14:17:04;6.90;;;4.60;;
26435;SDS011;15351;52.408;16.826;2023-04-25T14:19:34;5.40;;;4.10;;
26435;SDS011;15351;52.408;16.826;2023-04-25T14:22:04;4.30;;;3.40;;
26435;SDS011;15351;52.408;16.826;2023-04-25T14:24:45;4.40;;;2.70;;
26435;SDS011;15351;52.408;16.826;2023-04-25T14:27:13;3.60;;;2.60;;
26435;SDS011;15351;52.408;16.826;2023-04-25T14:30:04;5.40;;;3.50;;
26435;SDS011;15351;52.408;16.826;2023-04-25T14:32:52;6.30;;;4.10;;
26435;SDS011;15351;52.408;16.826;2023-04-25T14:35:20;4.00;;;3.50;;
26435;SDS011;15351;52.408;16.826;2023-04-25T14:37:47;5.30;;;3.00;;
26435;SDS011;15351;52.408;16.826;2023-04-25T14:40:13;5.00;;;3.20;;
26435;SDS011;15351;52.408;16.826;2023-04-25T14:42:41;5.60;;;3.20;;
26435;SDS011;15351;52.408;16.826;2023-04-25T14:45:08;5.10;;;3.20;;
26435;SDS011;15351;52.408;16.826;2023-04-25T14:47:37;6.40;;;3.20;;
26435;SDS011;15351;52.408;16.826;2023-04-25T14:50:05;5.20;;;2.60;;
26435;SDS011;15351;52.408;16.826;2023-04-25T14:52:33;7.70;;;2.70;;
26435;SDS011;15351;52.408;16.826;2023-04-25T14:55:00;6.20;;;3.00;;
26435;SDS011;15351;52.408;16.826;2023-04-25T14:57:33;6.60;;;2.90;;
26435;SDS011;15351;52.408;16.826;2023-04-25T15:00:00;5.40;;;2.30;;
26435;SDS011;15351;52.408;16.826;2023-04-25T15:02:31;5.70;;;2.40;;
26435;SDS011;15351;52.408;16.826;2023-04-25T15:04:58;7.80;;;3.20;;
26435;SDS011;15351;52.408;16.826;2023-04-25T15:07:26;7.30;;;3.40;;
26435;SDS011;15351;52.408;16.826;2023-04-25T15:09:52;5.10;;;2.70;;
26435;SDS011;15351;52.408;16.826;2023-04-25T15:12:19;7.80;;;3.70;;
26435;SDS011;15351;52.408;16.826;2023-04-25T15:14:55;7.10;;;3.90;;
26435;SDS011;15351;52.408;16.826;2023-04-25T15:17:24;8.40;;;4.20;;
26435;SDS011;15351;52.408;16.826;2023-04-25T15:20:02;8.40;;;4.10;;
26435;SDS011;15351;52.408;16.826;2023-04-25T15:22:34;8.10;;;4.40;;
26435;SDS011;15351;52.408;16.826;2023-04-25T15:27:59;8.50;;;3.90;;
26435;SDS011;15351;52.408;16.826;2023-04-25T15:33:09;9.40;;;4.60;;
26435;SDS011;15351;52.408;16.826;2023-04-25T15:35:40;11.30;;;4.80;;
26435;SDS011;15351;52.408;16.826;2023-04-25T15:41:39;10.30;;;5.50;;
26435;SDS011;15351;52.408;16.826;2023-04-25T15:44:14;10.70;;;5.00;;
26435;SDS011;15351;52.408;16.826;2023-04-25T15:46:45;11.90;;;4.60;;
26435;SDS011;15351;52.408;16.826;2023-04-25T15:49:15;11.20;;;4.70;;
26435;SDS011;15351;52.408;16.826;2023-04-25T15:54:31;12.00;;;4.90;;
26435;SDS011;15351;52.408;16.826;2023-04-25T15:57:05;13.20;;;6.10;;
26435;SDS011;15351;52.408;16.826;2023-04-25T15:59:45;11.00;;;4.90;;
26435;SDS011;15351;52.408;16.826;2023-04-25T16:02:41;10.70;;;4.20;;
26435;SDS011;15351;52.408;16.826;2023-04-25T16:05:28;11.40;;;4.40;;
26435;SDS011;15351;52.408;16.826;2023-04-25T16:08:00;11.50;;;5.00;;
26435;SDS011;15351;52.408;16.826;2023-04-25T16:10:33;13.00;;;5.50;;
26435;SDS011;15351;52.408;16.826;2023-04-25T16:13:00;11.60;;;5.40;;
26435;SDS011;15351;52.408;16.826;2023-04-25T16:15:29;13.40;;;5.40;;
26435;SDS011;15351;52.408;16.826;2023-04-25T16:18:00;11.10;;;4.50;;
26435;SDS011;15351;52.408;16.826;2023-04-25T16:20:31;14.80;;;5.30;;
26435;SDS011;15351;52.408;16.826;2023-04-25T16:23:18;13.20;;;5.20;;
26435;SDS011;15351;52.408;16.826;2023-04-25T16:26:00;12.70;;;5.30;;
26435;SDS011;15351;52.408;16.826;2023-04-25T16:28:29;15.00;;;6.40;;
26435;SDS011;15351;52.408;16.826;2023-04-25T16:30:59;14.20;;;5.30;;
26435;SDS011;15351;52.408;16.826;2023-04-25T16:33:49;14.70;;;5.70;;
26435;SDS011;15351;52.408;16.826;2023-04-25T16:36:19;14.00;;;5.90;;
26435;SDS011;15351;52.408;16.826;2023-04-25T16:39:08;14.60;;;5.60;;
26435;SDS011;15351;52.408;16.826;2023-04-25T16:41:35;10.50;;;4.10;;
26435;SDS011;15351;52.408;16.826;2023-04-25T16:44:08;13.10;;;4.90;;
26435;SDS011;15351;52.408;16.826;2023-04-25T16:46:34;13.40;;;4.90;;
26435;SDS011;15351;52.408;16.826;2023-04-25T16:52:45;12.50;;;4.80;;
26435;SDS011;15351;52.408;16.826;2023-04-25T16:55:12;12.90;;;5.00;;
26435;SDS011;15351;52.408;16.826;2023-04-25T16:57:41;10.30;;;4.80;;
26435;SDS011;15351;52.408;16.826;2023-04-25T17:00:14;13.60;;;5.00;;
26435;SDS011;15351;52.408;16.826;2023-04-25T17:02:45;13.60;;;4.80;;
26435;SDS011;15351;52.408;16.826;2023-04-25T17:05:23;13.90;;;5.60;;
26435;SDS011;15351;52.408;16.826;2023-04-25T17:07:51;15.20;;;5.40;;
26435;SDS011;15351;52.408;16.826;2023-04-25T17:13:44;15.70;;;5.80;;
26435;SDS011;15351;52.408;16.826;2023-04-25T17:16:17;13.30;;;4.80;;
26435;SDS011;15351;52.408;16.826;2023-04-25T17:19:09;13.70;;;5.70;;